首页
METAR-TAF:

METAR-TAF

机场 :

麥克默里堡國際機場

Fort McMurray, 艾伯塔, 加拿大

纬度: 56-39N, 经度: 111-13W, 海拔: 369米

当前天气观测

该预报发布于16分钟前的09:49 UTC
风速13节,风向西转西北,有时为18节阵风
温度 11°C
湿度 100%
气压 997 hPa
能見度: 6.4公里
多云层高于700英尺
阴天层高于1300英尺
小雨, 轻雾

METAR: CYMM 010949Z AUTO 30013G18KT 4SM -RA BR BKN007 OVC013 11/11 A2943 RMK SLP972 DENSITY ALT 1600FT

时间: 04:05 (10:05 UTC)

预报

该预报发布于3小时和0分钟前的07:05 UTC
预报有效从01日的 07点(UTC)到 01日的 19点(UTC)
风速10节,风向西北
能見度: 10公里
散云层高于500英尺
散云层高于1000英尺
多云层高于4000英尺
小雨
短暂存在
从 01日的 07点(UTC)到 01日的 19点(UTC)
能見度: 3.2公里
阴天层高于500英尺
阵雨, 轻雾

TAF: CYMM 010705Z 0107/0119 31010KT P6SM -RA SCT005 SCT010 BKN040 TEMPO 0107/0119 2SM SHRA BR OVC005 RMK FCST BASED ON AUTO OBS. NXT FCST BY 011300Z

超过4000个机场的气象观测和天气预报(METAR&TAF报告)。

可查询的气象台以黄色和红色小点在地图上表示。

将鼠标移到小点上方,可查看气象台名称。

然后点击查看天气观测和预报。

如需切换地图:点击带黑十字的绿色按钮放大地图;点击带横线的绿色按钮缩小地图;或者点击绿色箭头查看邻近地区的地图。


METAR-TAF: